sensor_id;sensor_type;location;lat;lon;timestamp;P1;durP1;ratioP1;P2;durP2;ratioP2
68224;SDS011;57497;43.322;21.932;2022-10-31T00:00:34;30.4;;;20.3;;
68224;SDS011;57497;43.322;21.932;2022-10-31T00:05:34;23.1;;;18.9;;
68224;SDS011;57497;43.322;21.932;2022-10-31T00:10:33;37.5;;;23.4;;
68224;SDS011;57497;43.322;21.932;2022-10-31T00:15:33;39.8;;;23.3;;
68224;SDS011;57497;43.322;21.932;2022-10-31T00:20:33;30.8;;;22.8;;
68224;SDS011;57497;43.322;21.932;2022-10-31T00:25:34;41.1;;;23.5;;
68224;SDS011;57497;43.322;21.932;2022-10-31T00:30:33;33.3;;;22.4;;
68224;SDS011;57497;43.322;21.932;2022-10-31T00:35:32;38.2;;;21.9;;
68224;SDS011;57497;43.322;21.932;2022-10-31T00:40:32;33.8;;;19.4;;
68224;SDS011;57497;43.322;21.932;2022-10-31T00:45:32;31.7;;;20.1;;
68224;SDS011;57497;43.322;21.932;2022-10-31T00:50:32;38.1;;;21.1;;
68224;SDS011;57497;43.322;21.932;2022-10-31T00:55:32;36.1;;;20.2;;
68224;SDS011;57497;43.322;21.932;2022-10-31T01:00:33;42.5;;;19.3;;
68224;SDS011;57497;43.322;21.932;2022-10-31T01:05:33;33.5;;;20.6;;
68224;SDS011;57497;43.322;21.932;2022-10-31T01:10:33;41.2;;;24.3;;
68224;SDS011;57497;43.322;21.932;2022-10-31T01:15:33;38.7;;;24.3;;
68224;SDS011;57497;43.322;21.932;2022-10-31T01:20:33;34.8;;;21.6;;
68224;SDS011;57497;43.322;21.932;2022-10-31T01:25:33;33.5;;;22.7;;
68224;SDS011;57497;43.322;21.932;2022-10-31T01:30:33;26;;;19.1;;
68224;SDS011;57497;43.322;21.932;2022-10-31T01:35:33;27.2;;;20.1;;
68224;SDS011;57497;43.322;21.932;2022-10-31T01:40:32;35.3;;;21.7;;
68224;SDS011;57497;43.322;21.932;2022-10-31T01:45:32;31.9;;;25.5;;
68224;SDS011;57497;43.322;21.932;2022-10-31T01:50:33;54;;;33.3;;
68224;SDS011;57497;43.322;21.932;2022-10-31T01:55:33;39.9;;;27.9;;
68224;SDS011;57497;43.322;21.932;2022-10-31T02:00:34;45.2;;;18.7;;
68224;SDS011;57497;43.322;21.932;2022-10-31T02:05:33;33.7;;;23.5;;
68224;SDS011;57497;43.322;21.932;2022-10-31T02:10:33;30.3;;;22.4;;
68224;SDS011;57497;43.322;21.932;2022-10-31T02:15:33;33.1;;;18;;
68224;SDS011;57497;43.322;21.932;2022-10-31T02:20:33;28;;;20.8;;
68224;SDS011;57497;43.322;21.932;2022-10-31T02:25:40;28.9;;;20.6;;
68224;SDS011;57497;43.322;21.932;2022-10-31T02:30:35;34.9;;;23;;
68224;SDS011;57497;43.322;21.932;2022-10-31T02:35:36;26.2;;;19.4;;
68224;SDS011;57497;43.322;21.932;2022-10-31T02:40:34;37.8;;;22;;
68224;SDS011;57497;43.322;21.932;2022-10-31T02:45:34;32.7;;;24.6;;
68224;SDS011;57497;43.322;21.932;2022-10-31T02:50:34;27.8;;;20.9;;
68224;SDS011;57497;43.322;21.932;2022-10-31T02:56:06;33;;;20.6;;
68224;SDS011;57497;43.322;21.932;2022-10-31T03:00:36;43.7;;;19.9;;
68224;SDS011;57497;43.322;21.932;2022-10-31T03:05:35;29.1;;;20.6;;
68224;SDS011;57497;43.322;21.932;2022-10-31T03:10:35;33;;;20.5;;
68224;SDS011;57497;43.322;21.932;2022-10-31T03:15:33;35.4;;;21.4;;
68224;SDS011;57497;43.322;21.932;2022-10-31T03:20:34;31.4;;;21.3;;
68224;SDS011;57497;43.322;21.932;2022-10-31T03:25:33;37.4;;;22.2;;
68224;SDS011;57497;43.322;21.932;2022-10-31T03:30:33;34;;;20.8;;
68224;SDS011;57497;43.322;21.932;2022-10-31T03:35:33;32.4;;;21.7;;
68224;SDS011;57497;43.322;21.932;2022-10-31T03:40:33;44.2;;;25;;
68224;SDS011;57497;43.322;21.932;2022-10-31T03:45:32;42.5;;;27;;
68224;SDS011;57497;43.322;21.932;2022-10-31T03:50:34;25.5;;;19.7;;
68224;SDS011;57497;43.322;21.932;2022-10-31T03:55:34;41.8;;;22.1;;
68224;SDS011;57497;43.322;21.932;2022-10-31T04:00:34;37;;;25.3;;
68224;SDS011;57497;43.322;21.932;2022-10-31T04:05:33;29.6;;;17.6;;
68224;SDS011;57497;43.322;21.932;2022-10-31T04:10:33;31.8;;;17.3;;
68224;SDS011;57497;43.322;21.932;2022-10-31T04:15:32;35.7;;;19.1;;
68224;SDS011;57497;43.322;21.932;2022-10-31T04:20:34;34.7;;;21;;
68224;SDS011;57497;43.322;21.932;2022-10-31T04:25:33;33.8;;;18.5;;
68224;SDS011;57497;43.322;21.932;2022-10-31T04:30:33;26.7;;;19.5;;
68224;SDS011;57497;43.322;21.932;2022-10-31T04:35:33;30.7;;;19.3;;
68224;SDS011;57497;43.322;21.932;2022-10-31T04:40:33;28.6;;;20.4;;
68224;SDS011;57497;43.322;21.932;2022-10-31T04:45:33;24.6;;;19;;
68224;SDS011;57497;43.322;21.932;2022-10-31T04:50:33;34.5;;;21.8;;
68224;SDS011;57497;43.322;21.932;2022-10-31T04:55:33;27.4;;;21.6;;
68224;SDS011;57497;43.322;21.932;2022-10-31T05:00:34;68.2;;;26.6;;
68224;SDS011;57497;43.322;21.932;2022-10-31T05:05:33;31.7;;;21.8;;
68224;SDS011;57497;43.322;21.932;2022-10-31T05:10:33;30.9;;;21.5;;
68224;SDS011;57497;43.322;21.932;2022-10-31T05:15:33;36;;;21;;
68224;SDS011;57497;43.322;21.932;2022-10-31T05:20:33;33.3;;;23;;
68224;SDS011;57497;43.322;21.932;2022-10-31T05:25:33;55;;;21.5;;
68224;SDS011;57497;43.322;21.932;2022-10-31T05:30:34;47.4;;;18.6;;
68224;SDS011;57497;43.322;21.932;2022-10-31T05:35:33;34.3;;;21.7;;
68224;SDS011;57497;43.322;21.932;2022-10-31T05:40:33;37.8;;;21.7;;
68224;SDS011;57497;43.322;21.932;2022-10-31T05:45:33;32.1;;;20.9;;
68224;SDS011;57497;43.322;21.932;2022-10-31T05:50:33;72.8;;;24.9;;
68224;SDS011;57497;43.322;21.932;2022-10-31T05:55:33;37.8;;;21.7;;
68224;SDS011;57497;43.322;21.932;2022-10-31T06:00:33;28.8;;;22.6;;
68224;SDS011;57497;43.322;21.932;2022-10-31T06:05:33;37.4;;;17.7;;
68224;SDS011;57497;43.322;21.932;2022-10-31T06:10:32;34.3;;;20.3;;
68224;SDS011;57497;43.322;21.932;2022-10-31T06:15:33;27.6;;;20.1;;
68224;SDS011;57497;43.322;21.932;2022-10-31T06:20:33;28.5;;;21.4;;
68224;SDS011;57497;43.322;21.932;2022-10-31T06:25:33;32.9;;;21;;
68224;SDS011;57497;43.322;21.932;2022-10-31T06:30:33;39.4;;;24.3;;
68224;SDS011;57497;43.322;21.932;2022-10-31T06:35:33;41.5;;;23.2;;
68224;SDS011;57497;43.322;21.932;2022-10-31T06:40:33;34.4;;;25.1;;
68224;SDS011;57497;43.322;21.932;2022-10-31T06:45:33;43.9;;;25.7;;
68224;SDS011;57497;43.322;21.932;2022-10-31T06:50:33;48.6;;;25.1;;
68224;SDS011;57497;43.322;21.932;2022-10-31T06:55:33;39.1;;;26.4;;
68224;SDS011;57497;43.322;21.932;2022-10-31T07:00:33;42.6;;;28.8;;
68224;SDS011;57497;43.322;21.932;2022-10-31T07:05:32;61.4;;;33.5;;
68224;SDS011;57497;43.322;21.932;2022-10-31T07:10:33;68.6;;;44.7;;
68224;SDS011;57497;43.322;21.932;2022-10-31T07:15:33;48.8;;;36;;
68224;SDS011;57497;43.322;21.932;2022-10-31T07:20:33;41.8;;;31.1;;
68224;SDS011;57497;43.322;21.932;2022-10-31T07:25:33;56.9;;;31.2;;
68224;SDS011;57497;43.322;21.932;2022-10-31T07:30:33;41.2;;;29.2;;
68224;SDS011;57497;43.322;21.932;2022-10-31T07:35:33;44.4;;;29;;
68224;SDS011;57497;43.322;21.932;2022-10-31T07:40:33;46.3;;;27.1;;
68224;SDS011;57497;43.322;21.932;2022-10-31T07:45:33;47.8;;;31.5;;
68224;SDS011;57497;43.322;21.932;2022-10-31T07:50:33;52.1;;;31;;
68224;SDS011;57497;43.322;21.932;2022-10-31T07:55:33;40.5;;;29.8;;
68224;SDS011;57497;43.322;21.932;2022-10-31T08:00:34;38.7;;;29.4;;
68224;SDS011;57497;43.322;21.932;2022-10-31T08:05:33;42.8;;;26.9;;
68224;SDS011;57497;43.322;21.932;2022-10-31T08:10:33;56.2;;;29.9;;
68224;SDS011;57497;43.322;21.932;2022-10-31T08:15:33;44.8;;;31.6;;
68224;SDS011;57497;43.322;21.932;2022-10-31T08:20:33;44.9;;;32.1;;
68224;SDS011;57497;43.322;21.932;2022-10-31T08:25:34;36.4;;;27.3;;
68224;SDS011;57497;43.322;21.932;2022-10-31T08:30:34;47;;;33.4;;
68224;SDS011;57497;43.322;21.932;2022-10-31T08:35:33;49.9;;;30.2;;
68224;SDS011;57497;43.322;21.932;2022-10-31T08:40:33;51.5;;;30.4;;
68224;SDS011;57497;43.322;21.932;2022-10-31T08:45:33;37.1;;;27.8;;
68224;SDS011;57497;43.322;21.932;2022-10-31T08:50:34;37.6;;;28.4;;
68224;SDS011;57497;43.322;21.932;2022-10-31T08:55:34;45.5;;;29.1;;
68224;SDS011;57497;43.322;21.932;2022-10-31T09:00:34;51.7;;;28.4;;
68224;SDS011;57497;43.322;21.932;2022-10-31T09:05:33;36.2;;;26.4;;
68224;SDS011;57497;43.322;21.932;2022-10-31T09:10:33;30.5;;;26.1;;
68224;SDS011;57497;43.322;21.932;2022-10-31T09:15:33;34.3;;;26.1;;
68224;SDS011;57497;43.322;21.932;2022-10-31T09:20:34;36.9;;;28.4;;
68224;SDS011;57497;43.322;21.932;2022-10-31T09:25:33;38.8;;;28.2;;
68224;SDS011;57497;43.322;21.932;2022-10-31T09:30:34;35.9;;;26.4;;
68224;SDS011;57497;43.322;21.932;2022-10-31T09:35:33;61.2;;;45.6;;
68224;SDS011;57497;43.322;21.932;2022-10-31T09:40:34;37.7;;;31.6;;
68224;SDS011;57497;43.322;21.932;2022-10-31T09:45:35;31.2;;;27.8;;
68224;SDS011;57497;43.322;21.932;2022-10-31T09:50:36;27.9;;;24.9;;
68224;SDS011;57497;43.322;21.932;2022-10-31T09:55:35;46.5;;;24.4;;
68224;SDS011;57497;43.322;21.932;2022-10-31T10:00:33;37.8;;;27.8;;
68224;SDS011;57497;43.322;21.932;2022-10-31T10:05:36;43.7;;;28.8;;
68224;SDS011;57497;43.322;21.932;2022-10-31T10:10:35;36;;;28.7;;
68224;SDS011;57497;43.322;21.932;2022-10-31T10:15:37;35.4;;;27.3;;
68224;SDS011;57497;43.322;21.932;2022-10-31T10:20:34;34.1;;;25.9;;
68224;SDS011;57497;43.322;21.932;2022-10-31T10:25:33;33.8;;;23.5;;
68224;SDS011;57497;43.322;21.932;2022-10-31T10:30:35;25.7;;;21.6;;
68224;SDS011;57497;43.322;21.932;2022-10-31T10:35:34;30.9;;;23.2;;
68224;SDS011;57497;43.322;21.932;2022-10-31T10:40:33;31.5;;;20.1;;
68224;SDS011;57497;43.322;21.932;2022-10-31T10:45:33;31.5;;;20.6;;
68224;SDS011;57497;43.322;21.932;2022-10-31T10:50:34;36.3;;;19.4;;
68224;SDS011;57497;43.322;21.932;2022-10-31T10:55:34;27.4;;;20.5;;
68224;SDS011;57497;43.322;21.932;2022-10-31T11:00:34;20.2;;;16.6;;
68224;SDS011;57497;43.322;21.932;2022-10-31T11:05:35;21.4;;;16;;
68224;SDS011;57497;43.322;21.932;2022-10-31T11:10:32;20.6;;;16.6;;
68224;SDS011;57497;43.322;21.932;2022-10-31T11:15:35;19.8;;;15.8;;
68224;SDS011;57497;43.322;21.932;2022-10-31T11:20:33;18.2;;;15.9;;
68224;SDS011;57497;43.322;21.932;2022-10-31T11:25:33;22.2;;;16.7;;
68224;SDS011;57497;43.322;21.932;2022-10-31T11:30:35;34.4;;;16.6;;
68224;SDS011;57497;43.322;21.932;2022-10-31T11:35:33;23.5;;;15;;
68224;SDS011;57497;43.322;21.932;2022-10-31T11:40:33;20.1;;;15;;
68224;SDS011;57497;43.322;21.932;2022-10-31T11:45:33;38.1;;;16.8;;
68224;SDS011;57497;43.322;21.932;2022-10-31T11:50:34;20.2;;;16;;
68224;SDS011;57497;43.322;21.932;2022-10-31T11:55:34;17.3;;;13.9;;
68224;SDS011;57497;43.322;21.932;2022-10-31T12:00:37;20.3;;;14.1;;
68224;SDS011;57497;43.322;21.932;2022-10-31T12:05:33;24.3;;;15.3;;
68224;SDS011;57497;43.322;21.932;2022-10-31T12:10:35;35.5;;;15.7;;
68224;SDS011;57497;43.322;21.932;2022-10-31T12:15:33;20.7;;;13.6;;
68224;SDS011;57497;43.322;21.932;2022-10-31T12:20:36;20.3;;;14;;
68224;SDS011;57497;43.322;21.932;2022-10-31T12:25:36;25.5;;;14.4;;
68224;SDS011;57497;43.322;21.932;2022-10-31T12:30:37;22.7;;;15.1;;
68224;SDS011;57497;43.322;21.932;2022-10-31T12:35:36;17.3;;;13;;
68224;SDS011;57497;43.322;21.932;2022-10-31T12:40:37;21.9;;;16.5;;
68224;SDS011;57497;43.322;21.932;2022-10-31T12:45:37;17.6;;;15.7;;
68224;SDS011;57497;43.322;21.932;2022-10-31T12:50:35;27;;;16.5;;
68224;SDS011;57497;43.322;21.932;2022-10-31T12:55:38;37.9;;;15.4;;
68224;SDS011;57497;43.322;21.932;2022-10-31T13:00:33;20.4;;;13.4;;
68224;SDS011;57497;43.322;21.932;2022-10-31T13:05:33;21.4;;;14.7;;
68224;SDS011;57497;43.322;21.932;2022-10-31T13:10:35;20.4;;;11.7;;
68224;SDS011;57497;43.322;21.932;2022-10-31T13:15:34;21.7;;;13.3;;
68224;SDS011;57497;43.322;21.932;2022-10-31T13:20:34;26.3;;;13.9;;
68224;SDS011;57497;43.322;21.932;2022-10-31T13:25:39;17.2;;;14.5;;
68224;SDS011;57497;43.322;21.932;2022-10-31T13:30:36;27.2;;;20.3;;
68224;SDS011;57497;43.322;21.932;2022-10-31T13:35:35;34.7;;;18.8;;
68224;SDS011;57497;43.322;21.932;2022-10-31T13:40:35;45;;;41.6;;
68224;SDS011;57497;43.322;21.932;2022-10-31T13:45:33;46.6;;;42.2;;
68224;SDS011;57497;43.322;21.932;2022-10-31T13:50:33;58.6;;;53.4;;
68224;SDS011;57497;43.322;21.932;2022-10-31T13:55:35;25.4;;;22.7;;
68224;SDS011;57497;43.322;21.932;2022-10-31T14:00:34;58;;;53.3;;
68224;SDS011;57497;43.322;21.932;2022-10-31T14:05:33;39.2;;;35.8;;
68224;SDS011;57497;43.322;21.932;2022-10-31T14:10:35;28.9;;;21.2;;
68224;SDS011;57497;43.322;21.932;2022-10-31T14:15:33;15.2;;;13.3;;
68224;SDS011;57497;43.322;21.932;2022-10-31T14:20:34;33.3;;;30.6;;
68224;SDS011;57497;43.322;21.932;2022-10-31T14:25:34;24.2;;;15.6;;
68224;SDS011;57497;43.322;21.932;2022-10-31T14:30:32;18.3;;;8.7;;
68224;SDS011;57497;43.322;21.932;2022-10-31T14:35:37;18.8;;;9.7;;
68224;SDS011;57497;43.322;21.932;2022-10-31T14:40:35;18.7;;;9.6;;
68224;SDS011;57497;43.322;21.932;2022-10-31T14:45:34;12.8;;;9.6;;
68224;SDS011;57497;43.322;21.932;2022-10-31T14:50:37;16.3;;;9.9;;
68224;SDS011;57497;43.322;21.932;2022-10-31T14:55:33;21.5;;;9.3;;
68224;SDS011;57497;43.322;21.932;2022-10-31T15:00:33;24.4;;;11.5;;
68224;SDS011;57497;43.322;21.932;2022-10-31T15:05:33;18;;;10.4;;
68224;SDS011;57497;43.322;21.932;2022-10-31T15:10:36;20.4;;;9.9;;
68224;SDS011;57497;43.322;21.932;2022-10-31T15:15:33;16.7;;;9.9;;
68224;SDS011;57497;43.322;21.932;2022-10-31T15:20:36;15;;;9.4;;
68224;SDS011;57497;43.322;21.932;2022-10-31T15:25:33;19.3;;;11.6;;
68224;SDS011;57497;43.322;21.932;2022-10-31T15:30:33;35.1;;;23.4;;
68224;SDS011;57497;43.322;21.932;2022-10-31T15:35:33;55.3;;;26.3;;
68224;SDS011;57497;43.322;21.932;2022-10-31T15:40:33;50.3;;;24.5;;
68224;SDS011;57497;43.322;21.932;2022-10-31T15:45:33;38.3;;;25.4;;
68224;SDS011;57497;43.322;21.932;2022-10-31T15:50:34;53.2;;;25.6;;
68224;SDS011;57497;43.322;21.932;2022-10-31T15:55:36;50.5;;;33.7;;
68224;SDS011;57497;43.322;21.932;2022-10-31T16:00:34;32.2;;;22.5;;
68224;SDS011;57497;43.322;21.932;2022-10-31T16:05:35;35.9;;;20.8;;
68224;SDS011;57497;43.322;21.932;2022-10-31T16:10:33;21.4;;;16.4;;
68224;SDS011;57497;43.322;21.932;2022-10-31T16:15:33;32.3;;;20.6;;
68224;SDS011;57497;43.322;21.932;2022-10-31T16:20:33;34.7;;;18.2;;
68224;SDS011;57497;43.322;21.932;2022-10-31T16:25:34;31.1;;;18.9;;
68224;SDS011;57497;43.322;21.932;2022-10-31T16:30:36;38.1;;;22.3;;
68224;SDS011;57497;43.322;21.932;2022-10-31T16:35:33;69.6;;;35.9;;
68224;SDS011;57497;43.322;21.932;2022-10-31T16:40:33;116.3;;;64.8;;
68224;SDS011;57497;43.322;21.932;2022-10-31T16:45:32;120.1;;;57.9;;
68224;SDS011;57497;43.322;21.932;2022-10-31T16:50:32;61.9;;;34.8;;
68224;SDS011;57497;43.322;21.932;2022-10-31T16:55:33;65.6;;;38.6;;
68224;SDS011;57497;43.322;21.932;2022-10-31T17:00:34;65.5;;;42;;
68224;SDS011;57497;43.322;21.932;2022-10-31T17:05:33;63.6;;;34.8;;
68224;SDS011;57497;43.322;21.932;2022-10-31T17:10:33;80.3;;;39.3;;
68224;SDS011;57497;43.322;21.932;2022-10-31T17:15:35;91.3;;;39.4;;
68224;SDS011;57497;43.322;21.932;2022-10-31T17:20:33;80.6;;;42.8;;
68224;SDS011;57497;43.322;21.932;2022-10-31T17:25:33;89.9;;;42.1;;
68224;SDS011;57497;43.322;21.932;2022-10-31T17:30:33;73.1;;;40.3;;
68224;SDS011;57497;43.322;21.932;2022-10-31T17:35:33;57.9;;;38.5;;
68224;SDS011;57497;43.322;21.932;2022-10-31T17:40:33;58.6;;;30.7;;
68224;SDS011;57497;43.322;21.932;2022-10-31T17:45:33;55.8;;;32.5;;
68224;SDS011;57497;43.322;21.932;2022-10-31T17:50:33;80.5;;;29;;
68224;SDS011;57497;43.322;21.932;2022-10-31T17:55:33;55.9;;;26.3;;
68224;SDS011;57497;43.322;21.932;2022-10-31T18:00:33;57.5;;;28;;
68224;SDS011;57497;43.322;21.932;2022-10-31T18:05:33;80.1;;;31.6;;
68224;SDS011;57497;43.322;21.932;2022-10-31T18:10:33;73.6;;;33.4;;
68224;SDS011;57497;43.322;21.932;2022-10-31T18:15:33;113.2;;;47.5;;
68224;SDS011;57497;43.322;21.932;2022-10-31T18:20:33;76.6;;;36.8;;
68224;SDS011;57497;43.322;21.932;2022-10-31T18:25:33;110.7;;;33.2;;
68224;SDS011;57497;43.322;21.932;2022-10-31T18:30:33;72.8;;;32.2;;
68224;SDS011;57497;43.322;21.932;2022-10-31T18:35:34;50.5;;;34.6;;
68224;SDS011;57497;43.322;21.932;2022-10-31T18:40:33;55;;;31.2;;
68224;SDS011;57497;43.322;21.932;2022-10-31T18:45:33;90.4;;;36.6;;
68224;SDS011;57497;43.322;21.932;2022-10-31T18:50:33;85.4;;;38.6;;
68224;SDS011;57497;43.322;21.932;2022-10-31T18:55:33;81.1;;;42.5;;
68224;SDS011;57497;43.322;21.932;2022-10-31T19:00:33;70.4;;;40.4;;
68224;SDS011;57497;43.322;21.932;2022-10-31T19:05:32;69.6;;;37.2;;
68224;SDS011;57497;43.322;21.932;2022-10-31T19:10:33;92.4;;;38.6;;
68224;SDS011;57497;43.322;21.932;2022-10-31T19:15:33;94.3;;;42.8;;
68224;SDS011;57497;43.322;21.932;2022-10-31T19:20:32;75.5;;;40.5;;
68224;SDS011;57497;43.322;21.932;2022-10-31T19:25:32;86.9;;;40.6;;
68224;SDS011;57497;43.322;21.932;2022-10-31T19:30:33;68.5;;;45.9;;
68224;SDS011;57497;43.322;21.932;2022-10-31T19:35:32;83.6;;;46.7;;
68224;SDS011;57497;43.322;21.932;2022-10-31T19:40:32;92.1;;;48.6;;
68224;SDS011;57497;43.322;21.932;2022-10-31T19:45:33;62;;;37;;
68224;SDS011;57497;43.322;21.932;2022-10-31T19:50:33;47.6;;;26.7;;
68224;SDS011;57497;43.322;21.932;2022-10-31T19:55:33;65.3;;;40.1;;
68224;SDS011;57497;43.322;21.932;2022-10-31T20:00:34;77.2;;;42.9;;
68224;SDS011;57497;43.322;21.932;2022-10-31T20:05:32;73.3;;;40.1;;
68224;SDS011;57497;43.322;21.932;2022-10-31T20:10:32;74.7;;;41.7;;
68224;SDS011;57497;43.322;21.932;2022-10-31T20:15:32;73.3;;;46.3;;
68224;SDS011;57497;43.322;21.932;2022-10-31T20:20:32;88;;;36.7;;
68224;SDS011;57497;43.322;21.932;2022-10-31T20:25:32;65.6;;;32.4;;
68224;SDS011;57497;43.322;21.932;2022-10-31T20:30:34;52.7;;;32.3;;
68224;SDS011;57497;43.322;21.932;2022-10-31T20:35:34;60.9;;;34.7;;
68224;SDS011;57497;43.322;21.932;2022-10-31T20:40:33;54.4;;;35.9;;
68224;SDS011;57497;43.322;21.932;2022-10-31T20:45:32;51.3;;;30.6;;
68224;SDS011;57497;43.322;21.932;2022-10-31T20:50:32;42.7;;;28.8;;
68224;SDS011;57497;43.322;21.932;2022-10-31T20:55:32;49.1;;;25.7;;
68224;SDS011;57497;43.322;21.932;2022-10-31T21:00:33;55.1;;;37.2;;
68224;SDS011;57497;43.322;21.932;2022-10-31T21:05:33;45.3;;;31.2;;
68224;SDS011;57497;43.322;21.932;2022-10-31T21:10:33;50.1;;;32.3;;
68224;SDS011;57497;43.322;21.932;2022-10-31T21:15:33;55.8;;;31.8;;
68224;SDS011;57497;43.322;21.932;2022-10-31T21:20:33;55.8;;;32.6;;
68224;SDS011;57497;43.322;21.932;2022-10-31T21:25:36;59.7;;;34.9;;
68224;SDS011;57497;43.322;21.932;2022-10-31T21:30:33;47.4;;;28.9;;
68224;SDS011;57497;43.322;21.932;2022-10-31T21:35:33;41.8;;;27.9;;
68224;SDS011;57497;43.322;21.932;2022-10-31T21:40:33;30.6;;;23.4;;
68224;SDS011;57497;43.322;21.932;2022-10-31T21:45:33;34.7;;;26.4;;
68224;SDS011;57497;43.322;21.932;2022-10-31T21:50:33;50.2;;;24.7;;
68224;SDS011;57497;43.322;21.932;2022-10-31T21:55:33;54.1;;;28.5;;
68224;SDS011;57497;43.322;21.932;2022-10-31T22:00:33;72.7;;;25.3;;
68224;SDS011;57497;43.322;21.932;2022-10-31T22:05:32;56.8;;;33.7;;
68224;SDS011;57497;43.322;21.932;2022-10-31T22:10:33;42;;;29.4;;
68224;SDS011;57497;43.322;21.932;2022-10-31T22:15:33;62.5;;;29.3;;
68224;SDS011;57497;43.322;21.932;2022-10-31T22:20:33;48.9;;;31.5;;
68224;SDS011;57497;43.322;21.932;2022-10-31T22:25:34;51.8;;;29.4;;
68224;SDS011;57497;43.322;21.932;2022-10-31T22:30:35;48;;;27.6;;
68224;SDS011;57497;43.322;21.932;2022-10-31T22:35:33;47.2;;;28.4;;
68224;SDS011;57497;43.322;21.932;2022-10-31T22:40:33;37.9;;;27.8;;
68224;SDS011;57497;43.322;21.932;2022-10-31T22:45:33;58.5;;;29.5;;
68224;SDS011;57497;43.322;21.932;2022-10-31T22:50:33;41;;;26.4;;
68224;SDS011;57497;43.322;21.932;2022-10-31T22:55:33;50.6;;;26.5;;
68224;SDS011;57497;43.322;21.932;2022-10-31T23:00:33;57.2;;;32.5;;
68224;SDS011;57497;43.322;21.932;2022-10-31T23:05:34;49;;;29.7;;
68224;SDS011;57497;43.322;21.932;2022-10-31T23:10:33;50.9;;;29.2;;
68224;SDS011;57497;43.322;21.932;2022-10-31T23:15:36;42;;;27.9;;
68224;SDS011;57497;43.322;21.932;2022-10-31T23:20:33;61.7;;;34;;
68224;SDS011;57497;43.322;21.932;2022-10-31T23:25:33;60.3;;;32.1;;
68224;SDS011;57497;43.322;21.932;2022-10-31T23:30:33;58.9;;;29.9;;
68224;SDS011;57497;43.322;21.932;2022-10-31T23:35:33;61.3;;;33.4;;
68224;SDS011;57497;43.322;21.932;2022-10-31T23:40:33;69.7;;;33.4;;
68224;SDS011;57497;43.322;21.932;2022-10-31T23:45:33;56.4;;;26;;
68224;SDS011;57497;43.322;21.932;2022-10-31T23:50:33;50.6;;;26.8;;
68224;SDS011;57497;43.322;21.932;2022-10-31T23:55:33;41.4;;;26.1;;
